createdAt,value
2022-10-16T00:23:01.163Z,90.52
2022-10-16T00:51:21.517Z,91.9
2022-10-16T01:20:04.462Z,91.99
2022-10-16T01:48:35.899Z,92.8
2022-10-16T02:17:16.727Z,92.62
2022-10-16T02:45:48.798Z,92.92
2022-10-16T03:14:24.406Z,93.7
2022-10-16T03:42:58.039Z,93.82
2022-10-16T04:11:36.930Z,94.14
2022-10-16T04:40:23.183Z,94.73
2022-10-16T05:09:03.254Z,94.6
2022-10-16T05:37:25.625Z,95.21
2022-10-16T06:05:46.563Z,96.17
2022-10-16T06:34:07.598Z,96.33
2022-10-16T07:02:44.653Z,95.75
2022-10-16T07:31:26.489Z,94.41
2022-10-16T08:00:14.309Z,95.41
2022-10-16T08:28:58.417Z,89.46
2022-10-16T08:57:27.927Z,87.08
2022-10-16T09:26:09.054Z,83.33
2022-10-16T09:54:47.082Z,83.89
2022-10-16T10:23:24.208Z,81.72
2022-10-16T10:51:45.698Z,79.07
2022-10-16T11:20:52.835Z,77.26
2022-10-16T11:49:14.990Z,76.06
2022-10-16T12:17:55.911Z,71.43
2022-10-16T13:14:57.302Z,64.38
2022-10-16T13:43:31.565Z,59.88
2022-10-16T14:12:07.033Z,56.92
2022-10-16T14:40:24.280Z,58.29
2022-10-16T15:09:06.448Z,59.51
2022-10-16T15:37:42.666Z,63.55
2022-10-16T16:06:16.840Z,67.15
2022-10-16T16:34:52.638Z,68.19
2022-10-16T17:03:18.056Z,70.29
2022-10-16T17:31:56.603Z,71.79
2022-10-16T18:00:29.534Z,75.05
2022-10-16T18:28:55.549Z,76.72
2022-10-16T18:57:23.955Z,80.02
2022-10-16T19:25:50.266Z,83.49
2022-10-16T19:54:20.479Z,84.54
2022-10-16T20:22:44.640Z,84.26
2022-10-16T20:51:08.167Z,84.97
2022-10-16T21:19:37.586Z,84.95
2022-10-16T21:48:16.405Z,84.95
2022-10-16T22:16:36.281Z,85.74
2022-10-16T22:45:15.429Z,88.76
2022-10-16T23:13:54.308Z,88.17
2022-10-16T23:42:32.984Z,88.67
